LEJR/XRY METAR and TAF weather

Enter ICAO airport designator
Station Type Date Time Source
LEJR METAR 2020/07/11 04:30 UTC NOAA

LEJR 110430Z 07004KT CAVOK 19/16 Q1011


Station Type Date Time Source
LEJR Decoded METAR 2020/07/11 04:30 UTC NOAA

Jerez De La Fronteraaeropuerto, Spain (LEJR) 36-45N 006-04W 28M
Jul 11, 2020 - 12:30 AM EDT / 2020.07.11 0430 UTC
Wind: from the ENE (070 degrees) at 5 MPH (4 KT):0
Visibility: greater than 7 mile(s):0
Temperature: 66 F (19 C)
Dew Point: 60 F (16 C)
Relative Humidity: 82%
Pressure (altimeter): 29.85 in. Hg (1011 hPa)
ob: LEJR 110430Z 07004KT CAVOK 19/16 Q1011
cycle: 4

Station Type Date Time Source
LEJR TAF 2020/07/10 18:30 UTC NOAA

TAF LEJR 101700Z 1018/1118 22006KT CAVOK TX36/1114Z TN19/1105Z
BECMG 1111/1113 09012KT PROB40
TEMPO 1112/1118 09015G25KT

Example: see airport list